sensor_id;sensor_type;location;lat;lon;timestamp;pressure;altitude;pressure_sealevel;temperature;humidity
9281;BME280;4679;47.966;7.958;2023-07-20T06:11:21;97111.59;;;19.48;62.79
9281;BME280;4679;47.966;7.958;2023-07-20T06:13:22;97119.91;;;19.52;62.71
9281;BME280;4679;47.966;7.958;2023-07-20T06:15:26;97120.72;;;19.52;62.64
9281;BME280;4679;47.966;7.958;2023-07-20T06:17:28;97119.31;;;19.55;62.44
9281;BME280;4679;47.966;7.958;2023-07-20T06:19:29;97114.25;;;19.53;62.63
9281;BME280;4679;47.966;7.958;2023-07-20T06:21:31;97116.31;;;19.56;62.71
9281;BME280;4679;47.966;7.958;2023-07-20T06:23:33;97113.22;;;19.63;62.38
9281;BME280;4679;47.966;7.958;2023-07-20T06:25:33;97111.22;;;19.69;62.22
9281;BME280;4679;47.966;7.958;2023-07-20T06:27:36;97100.16;;;19.70;62.43
9281;BME280;4679;47.966;7.958;2023-07-20T06:29:38;97110.44;;;19.68;62.27
9281;BME280;4679;47.966;7.958;2023-07-20T06:31:40;97109.50;;;19.73;62.21
9281;BME280;4679;47.966;7.958;2023-07-20T06:33:41;97105.91;;;19.77;62.16
9281;BME280;4679;47.966;7.958;2023-07-20T06:35:43;97104.72;;;19.83;61.98
9281;BME280;4679;47.966;7.958;2023-07-20T06:37:45;97103.47;;;19.89;61.84
9281;BME280;4679;47.966;7.958;2023-07-20T06:39:46;97099.78;;;19.99;61.49
9281;BME280;4679;47.966;7.958;2023-07-20T06:41:48;97101.72;;;20.07;61.83
9281;BME280;4679;47.966;7.958;2023-07-20T06:43:51;97107.31;;;20.11;61.60
9281;BME280;4679;47.966;7.958;2023-07-20T06:45:58;97104.31;;;20.12;61.43
9281;BME280;4679;47.966;7.958;2023-07-20T06:47:59;97102.91;;;20.15;61.21
9281;BME280;4679;47.966;7.958;2023-07-20T06:50:01;97110.75;;;20.25;61.10
9281;BME280;4679;47.966;7.958;2023-07-20T06:52:03;97115.31;;;20.38;61.20
9281;BME280;4679;47.966;7.958;2023-07-20T06:54:05;97101.91;;;20.47;60.62
9281;BME280;4679;47.966;7.958;2023-07-20T06:56:07;97096.38;;;20.52;60.44
9281;BME280;4679;47.966;7.958;2023-07-20T06:58:08;97100.06;;;20.56;60.43
9281;BME280;4679;47.966;7.958;2023-07-20T07:00:12;97101.94;;;20.55;60.12
9281;BME280;4679;47.966;7.958;2023-07-20T07:02:13;97106.81;;;20.45;60.46
9281;BME280;4679;47.966;7.958;2023-07-20T07:04:15;97106.72;;;20.36;60.51
9281;BME280;4679;47.966;7.958;2023-07-20T07:06:17;97115.31;;;20.38;60.07
9281;BME280;4679;47.966;7.958;2023-07-20T07:08:18;97096.69;;;20.50;59.67
9281;BME280;4679;47.966;7.958;2023-07-20T07:10:20;97098.19;;;20.65;59.41
9281;BME280;4679;47.966;7.958;2023-07-20T07:12:22;97099.34;;;20.73;59.06
9281;BME280;4679;47.966;7.958;2023-07-20T07:14:23;97099.19;;;20.69;59.26
9281;BME280;4679;47.966;7.958;2023-07-20T07:16:25;97103.03;;;20.77;59.07
9281;BME280;4679;47.966;7.958;2023-07-20T07:18:27;97093.69;;;20.83;58.69
9281;BME280;4679;47.966;7.958;2023-07-20T07:20:29;97090.25;;;20.91;58.24
9281;BME280;4679;47.966;7.958;2023-07-20T07:22:31;97101.88;;;21.00;58.09
9281;BME280;4679;47.966;7.958;2023-07-20T07:24:32;97093.97;;;21.12;57.66
9281;BME280;4679;47.966;7.958;2023-07-20T07:26:35;97099.44;;;21.21;57.54
9281;BME280;4679;47.966;7.958;2023-07-20T07:28:37;97105.78;;;21.25;57.36
9281;BME280;4679;47.966;7.958;2023-07-20T07:30:39;97107.09;;;21.27;57.63
9281;BME280;4679;47.966;7.958;2023-07-20T07:32:42;97109.66;;;21.32;57.04
9281;BME280;4679;47.966;7.958;2023-07-20T07:34:43;97104.06;;;21.29;56.99
9281;BME280;4679;47.966;7.958;2023-07-20T07:36:46;97105.34;;;21.31;57.05
9281;BME280;4679;47.966;7.958;2023-07-20T07:38:47;97108.41;;;21.38;56.64
9281;BME280;4679;47.966;7.958;2023-07-20T07:40:49;97108.91;;;21.58;56.32
9281;BME280;4679;47.966;7.958;2023-07-20T07:42:50;97104.47;;;21.62;56.43
9281;BME280;4679;47.966;7.958;2023-07-20T07:44:51;97109.72;;;21.58;56.29
9281;BME280;4679;47.966;7.958;2023-07-20T07:46:53;97100.81;;;21.58;56.17
9281;BME280;4679;47.966;7.958;2023-07-20T07:48:56;97107.00;;;21.50;55.99
9281;BME280;4679;47.966;7.958;2023-07-20T07:50:57;97104.97;;;21.64;55.63
9281;BME280;4679;47.966;7.958;2023-07-20T07:52:59;97105.44;;;21.66;55.40
9281;BME280;4679;47.966;7.958;2023-07-20T07:55:01;97106.41;;;21.79;55.32
9281;BME280;4679;47.966;7.958;2023-07-20T07:57:05;97105.47;;;21.83;55.16
9281;BME280;4679;47.966;7.958;2023-07-20T07:59:06;97098.94;;;21.75;55.40
9281;BME280;4679;47.966;7.958;2023-07-20T08:01:08;97104.16;;;21.63;55.21
9281;BME280;4679;47.966;7.958;2023-07-20T08:03:10;97101.13;;;21.56;55.52
9281;BME280;4679;47.966;7.958;2023-07-20T08:05:13;97098.28;;;21.53;55.62
9281;BME280;4679;47.966;7.958;2023-07-20T08:07:15;97102.75;;;21.66;54.84
9281;BME280;4679;47.966;7.958;2023-07-20T08:09:16;97103.72;;;21.79;54.85
9281;BME280;4679;47.966;7.958;2023-07-20T08:11:18;97099.44;;;21.77;54.68
9281;BME280;4679;47.966;7.958;2023-07-20T08:13:19;97101.31;;;21.77;54.45
9281;BME280;4679;47.966;7.958;2023-07-20T08:15:20;97098.47;;;21.82;54.46
9281;BME280;4679;47.966;7.958;2023-07-20T08:17:22;97099.91;;;21.80;54.35
9281;BME280;4679;47.966;7.958;2023-07-20T08:19:24;97104.81;;;21.77;54.33
9281;BME280;4679;47.966;7.958;2023-07-20T08:21:27;97096.06;;;21.72;53.83
9281;BME280;4679;47.966;7.958;2023-07-20T08:23:28;97100.53;;;21.85;54.11
9281;BME280;4679;47.966;7.958;2023-07-20T08:25:30;97100.56;;;22.02;54.07
9281;BME280;4679;47.966;7.958;2023-07-20T08:27:32;97096.94;;;22.24;53.26
9281;BME280;4679;47.966;7.958;2023-07-20T08:29:34;97103.78;;;22.30;53.01
9281;BME280;4679;47.966;7.958;2023-07-20T08:31:35;97097.06;;;22.45;52.48
9281;BME280;4679;47.966;7.958;2023-07-20T08:33:36;97100.22;;;22.56;52.34
9281;BME280;4679;47.966;7.958;2023-07-20T08:35:38;97091.59;;;22.79;52.13
9281;BME280;4679;47.966;7.958;2023-07-20T08:37:41;97093.66;;;22.74;51.77
9281;BME280;4679;47.966;7.958;2023-07-20T08:39:43;97096.84;;;22.85;51.79
9281;BME280;4679;47.966;7.958;2023-07-20T08:41:46;97089.78;;;23.01;51.36
9281;BME280;4679;47.966;7.958;2023-07-20T08:43:48;97096.56;;;23.15;50.94
9281;BME280;4679;47.966;7.958;2023-07-20T08:45:52;97097.28;;;23.04;51.32
9281;BME280;4679;47.966;7.958;2023-07-20T08:47:56;97091.22;;;22.98;51.02
9281;BME280;4679;47.966;7.958;2023-07-20T08:50:00;97091.00;;;23.12;50.78
9281;BME280;4679;47.966;7.958;2023-07-20T08:52:07;97088.00;;;23.43;50.31
9281;BME280;4679;47.966;7.958;2023-07-20T08:54:12;97089.16;;;23.33;50.18
9281;BME280;4679;47.966;7.958;2023-07-20T08:56:16;97081.91;;;23.17;50.45
9281;BME280;4679;47.966;7.958;2023-07-20T08:58:18;97088.06;;;23.34;50.05
9281;BME280;4679;47.966;7.958;2023-07-20T09:00:22;97085.16;;;23.69;49.64
9281;BME280;4679;47.966;7.958;2023-07-20T09:02:25;97090.03;;;23.55;49.62
9281;BME280;4679;47.966;7.958;2023-07-20T09:04:28;97088.13;;;23.46;49.61
9281;BME280;4679;47.966;7.958;2023-07-20T09:06:29;97095.78;;;23.44;49.40
9281;BME280;4679;47.966;7.958;2023-07-20T09:08:30;97088.97;;;23.38;49.55
9281;BME280;4679;47.966;7.958;2023-07-20T09:10:34;97078.94;;;23.68;48.92
9281;BME280;4679;47.966;7.958;2023-07-20T09:12:35;97079.53;;;23.74;48.60
9281;BME280;4679;47.966;7.958;2023-07-20T09:14:37;97079.19;;;23.55;48.75
9281;BME280;4679;47.966;7.958;2023-07-20T09:16:48;97080.66;;;23.73;48.50
9281;BME280;4679;47.966;7.958;2023-07-20T09:18:50;97083.53;;;23.76;48.31
9281;BME280;4679;47.966;7.958;2023-07-20T09:20:52;97081.38;;;23.61;48.36
9281;BME280;4679;47.966;7.958;2023-07-20T09:22:54;97084.09;;;23.61;48.38
9281;BME280;4679;47.966;7.958;2023-07-20T09:24:56;97078.56;;;23.99;47.65
9281;BME280;4679;47.966;7.958;2023-07-20T09:27:01;97080.53;;;24.32;47.22
9281;BME280;4679;47.966;7.958;2023-07-20T09:29:07;97078.59;;;24.53;47.36
9281;BME280;4679;47.966;7.958;2023-07-20T09:31:15;97075.25;;;24.68;46.33
9281;BME280;4679;47.966;7.958;2023-07-20T09:33:21;97084.16;;;24.15;47.31
9281;BME280;4679;47.966;7.958;2023-07-20T09:35:23;97073.59;;;24.22;47.30
9281;BME280;4679;47.966;7.958;2023-07-20T09:37:25;97073.78;;;24.38;46.96
9281;BME280;4679;47.966;7.958;2023-07-20T09:39:28;97073.97;;;24.53;46.58
9281;BME280;4679;47.966;7.958;2023-07-20T09:41:39;97070.31;;;24.49;46.51
9281;BME280;4679;47.966;7.958;2023-07-20T09:43:43;97068.91;;;24.10;47.11
9281;BME280;4679;47.966;7.958;2023-07-20T09:45:44;97075.03;;;24.19;46.94
9281;BME280;4679;47.966;7.958;2023-07-20T09:47:45;97075.31;;;24.60;46.52
9281;BME280;4679;47.966;7.958;2023-07-20T09:49:47;97053.28;;;24.61;46.33
9281;BME280;4679;47.966;7.958;2023-07-20T09:51:49;97056.13;;;24.65;46.25
9281;BME280;4679;47.966;7.958;2023-07-20T09:53:52;97054.13;;;24.74;46.02
9281;BME280;4679;47.966;7.958;2023-07-20T09:55:54;97057.56;;;24.50;46.38
9281;BME280;4679;47.966;7.958;2023-07-20T09:57:56;97054.91;;;24.86;45.61
9281;BME280;4679;47.966;7.958;2023-07-20T09:59:59;97051.00;;;25.08;45.42
9281;BME280;4679;47.966;7.958;2023-07-20T10:02:01;97046.59;;;25.28;44.93
9281;BME280;4679;47.966;7.958;2023-07-20T10:04:08;97037.88;;;25.22;45.23
9281;BME280;4679;47.966;7.958;2023-07-20T10:06:13;97041.50;;;25.27;45.13
9281;BME280;4679;47.966;7.958;2023-07-20T10:08:16;97042.97;;;25.00;45.69
9281;BME280;4679;47.966;7.958;2023-07-20T10:10:20;97040.59;;;24.98;45.35
9281;BME280;4679;47.966;7.958;2023-07-20T10:12:22;97036.03;;;24.90;45.66
9281;BME280;4679;47.966;7.958;2023-07-20T10:14:25;97040.75;;;24.81;45.73
9281;BME280;4679;47.966;7.958;2023-07-20T10:16:35;97035.63;;;24.55;45.66
9281;BME280;4679;47.966;7.958;2023-07-20T10:18:41;97039.13;;;24.43;45.76
9281;BME280;4679;47.966;7.958;2023-07-20T10:20:49;97023.06;;;24.38;45.85
9281;BME280;4679;47.966;7.958;2023-07-20T10:22:53;97021.19;;;24.30;45.90
9281;BME280;4679;47.966;7.958;2023-07-20T10:24:55;97033.53;;;24.28;46.03
9281;BME280;4679;47.966;7.958;2023-07-20T10:27:00;97020.22;;;24.35;46.05
9281;BME280;4679;47.966;7.958;2023-07-20T10:29:03;97011.94;;;24.31;45.86
9281;BME280;4679;47.966;7.958;2023-07-20T10:31:07;97023.81;;;24.06;46.08
9281;BME280;4679;47.966;7.958;2023-07-20T10:33:11;97022.03;;;24.10;45.91
9281;BME280;4679;47.966;7.958;2023-07-20T10:35:13;97024.50;;;24.15;45.74
9281;BME280;4679;47.966;7.958;2023-07-20T10:37:49;97021.97;;;23.98;45.96
9281;BME280;4679;47.966;7.958;2023-07-20T10:39:55;97011.00;;;23.94;45.52
9281;BME280;4679;47.966;7.958;2023-07-20T10:42:01;97018.28;;;24.14;45.46
9281;BME280;4679;47.966;7.958;2023-07-20T10:44:04;97003.81;;;24.31;45.00
9281;BME280;4679;47.966;7.958;2023-07-20T10:46:06;97004.81;;;24.84;44.22
9281;BME280;4679;47.966;7.958;2023-07-20T10:48:16;97006.97;;;25.27;43.93
9281;BME280;4679;47.966;7.958;2023-07-20T10:50:21;97005.16;;;25.31;43.37
9281;BME280;4679;47.966;7.958;2023-07-20T10:52:22;97013.81;;;25.61;43.31
9281;BME280;4679;47.966;7.958;2023-07-20T10:54:49;97007.13;;;25.71;43.24
9281;BME280;4679;47.966;7.958;2023-07-20T10:56:51;97009.03;;;25.82;42.64
9281;BME280;4679;47.966;7.958;2023-07-20T10:58:56;97010.88;;;25.78;42.91
9281;BME280;4679;47.966;7.958;2023-07-20T11:01:00;97006.34;;;25.58;42.75
9281;BME280;4679;47.966;7.958;2023-07-20T11:03:02;96999.72;;;25.96;42.28
9281;BME280;4679;47.966;7.958;2023-07-20T11:05:06;97000.16;;;26.25;42.15
9281;BME280;4679;47.966;7.958;2023-07-20T11:07:15;97001.97;;;25.93;42.15
9281;BME280;4679;47.966;7.958;2023-07-20T11:09:17;96994.84;;;25.89;42.70
9281;BME280;4679;47.966;7.958;2023-07-20T11:11:22;96998.69;;;25.48;43.11
9281;BME280;4679;47.966;7.958;2023-07-20T11:13:23;96991.50;;;25.68;42.57
9281;BME280;4679;47.966;7.958;2023-07-20T11:15:26;96992.22;;;25.65;42.28
9281;BME280;4679;47.966;7.958;2023-07-20T11:17:29;96992.69;;;25.95;41.63
9281;BME280;4679;47.966;7.958;2023-07-20T11:19:31;96991.53;;;26.23;41.59
9281;BME280;4679;47.966;7.958;2023-07-20T11:21:38;96987.34;;;26.26;41.78
9281;BME280;4679;47.966;7.958;2023-07-20T11:23:43;96986.31;;;26.46;41.45
9281;BME280;4679;47.966;7.958;2023-07-20T11:25:45;96982.31;;;26.28;41.49
9281;BME280;4679;47.966;7.958;2023-07-20T11:27:47;96973.13;;;26.33;41.30
9281;BME280;4679;47.966;7.958;2023-07-20T11:29:49;96977.91;;;26.67;40.87
9281;BME280;4679;47.966;7.958;2023-07-20T11:31:51;96968.16;;;26.50;41.10
9281;BME280;4679;47.966;7.958;2023-07-20T11:33:53;96970.34;;;26.45;40.71
9281;BME280;4679;47.966;7.958;2023-07-20T11:35:55;96967.28;;;26.18;40.75
9281;BME280;4679;47.966;7.958;2023-07-20T11:37:58;96962.81;;;26.10;40.68
9281;BME280;4679;47.966;7.958;2023-07-20T11:39:59;96965.38;;;26.19;40.82
9281;BME280;4679;47.966;7.958;2023-07-20T11:42:01;96961.47;;;26.32;40.44
9281;BME280;4679;47.966;7.958;2023-07-20T11:44:03;96950.72;;;26.23;40.62
9281;BME280;4679;47.966;7.958;2023-07-20T11:46:06;96955.22;;;26.32;40.62
9281;BME280;4679;47.966;7.958;2023-07-20T11:48:14;96958.41;;;26.49;39.81
9281;BME280;4679;47.966;7.958;2023-07-20T11:50:16;96959.09;;;26.46;39.50
9281;BME280;4679;47.966;7.958;2023-07-20T11:52:18;96953.94;;;26.41;39.70
9281;BME280;4679;47.966;7.958;2023-07-20T11:54:21;96954.09;;;26.80;39.06
9281;BME280;4679;47.966;7.958;2023-07-20T11:56:23;96957.06;;;27.06;39.21
9281;BME280;4679;47.966;7.958;2023-07-20T11:58:27;96951.63;;;27.06;38.97
9281;BME280;4679;47.966;7.958;2023-07-20T12:00:29;96951.38;;;27.11;39.21
9281;BME280;4679;47.966;7.958;2023-07-20T12:02:31;96944.97;;;26.88;38.76
9281;BME280;4679;47.966;7.958;2023-07-20T12:04:33;96945.81;;;26.92;38.78
9281;BME280;4679;47.966;7.958;2023-07-20T12:06:35;96934.44;;;27.02;38.70
9281;BME280;4679;47.966;7.958;2023-07-20T12:08:38;96939.09;;;27.21;39.04
9281;BME280;4679;47.966;7.958;2023-07-20T12:10:42;96940.22;;;27.55;38.64
9281;BME280;4679;47.966;7.958;2023-07-20T12:12:44;96943.97;;;27.47;37.94
9281;BME280;4679;47.966;7.958;2023-07-20T12:14:46;96933.91;;;27.31;38.46
9281;BME280;4679;47.966;7.958;2023-07-20T12:16:52;96936.84;;;26.91;39.10
9281;BME280;4679;47.966;7.958;2023-07-20T12:19:00;96932.16;;;26.73;39.28
9281;BME280;4679;47.966;7.958;2023-07-20T12:21:02;96930.13;;;26.85;38.91
9281;BME280;4679;47.966;7.958;2023-07-20T12:23:08;96926.31;;;26.90;38.71
9281;BME280;4679;47.966;7.958;2023-07-20T12:25:10;96929.16;;;26.93;38.55
9281;BME280;4679;47.966;7.958;2023-07-20T12:27:14;96923.34;;;26.95;38.60
9281;BME280;4679;47.966;7.958;2023-07-20T12:29:17;96921.19;;;27.20;38.04
9281;BME280;4679;47.966;7.958;2023-07-20T12:31:19;96917.56;;;27.51;37.66
9281;BME280;4679;47.966;7.958;2023-07-20T12:33:21;96920.59;;;27.84;37.13
9281;BME280;4679;47.966;7.958;2023-07-20T12:35:23;96919.50;;;27.50;37.62
9281;BME280;4679;47.966;7.958;2023-07-20T12:37:25;96915.28;;;27.34;37.34
9281;BME280;4679;47.966;7.958;2023-07-20T12:39:27;96918.13;;;27.41;37.11
9281;BME280;4679;47.966;7.958;2023-07-20T12:41:28;96904.88;;;27.04;38.03
9281;BME280;4679;47.966;7.958;2023-07-20T12:43:31;96905.56;;;27.17;37.78
9281;BME280;4679;47.966;7.958;2023-07-20T12:45:33;96889.69;;;27.57;37.18
9281;BME280;4679;47.966;7.958;2023-07-20T12:47:35;96890.59;;;27.84;37.00
9281;BME280;4679;47.966;7.958;2023-07-20T12:49:36;96893.47;;;27.91;36.70
9281;BME280;4679;47.966;7.958;2023-07-20T12:51:38;96889.53;;;28.12;36.04
9281;BME280;4679;47.966;7.958;2023-07-20T12:53:40;96889.47;;;28.08;36.39
9281;BME280;4679;47.966;7.958;2023-07-20T12:55:41;96893.75;;;28.51;36.26
9281;BME280;4679;47.966;7.958;2023-07-20T12:57:43;96891.97;;;28.62;35.76
9281;BME280;4679;47.966;7.958;2023-07-20T12:59:46;96884.03;;;28.54;35.80
9281;BME280;4679;47.966;7.958;2023-07-20T13:01:47;96885.88;;;28.23;36.47
9281;BME280;4679;47.966;7.958;2023-07-20T13:03:48;96890.47;;;28.42;35.89
9281;BME280;4679;47.966;7.958;2023-07-20T13:05:50;96884.34;;;28.49;35.84
9281;BME280;4679;47.966;7.958;2023-07-20T13:07:52;96872.06;;;28.62;35.52
9281;BME280;4679;47.966;7.958;2023-07-20T13:09:53;96878.03;;;28.94;35.20
9281;BME280;4679;47.966;7.958;2023-07-20T13:11:55;96878.59;;;29.07;35.40
9281;BME280;4679;47.966;7.958;2023-07-20T13:13:57;96876.50;;;28.70;35.51
9281;BME280;4679;47.966;7.958;2023-07-20T13:16:00;96869.31;;;28.35;35.97
9281;BME280;4679;47.966;7.958;2023-07-20T13:18:02;96876.03;;;28.42;35.88
9281;BME280;4679;47.966;7.958;2023-07-20T13:20:05;96873.56;;;28.14;35.80
9281;BME280;4679;47.966;7.958;2023-07-20T13:22:08;96875.88;;;28.12;35.94
9281;BME280;4679;47.966;7.958;2023-07-20T13:24:09;96871.31;;;27.74;36.45
9281;BME280;4679;47.966;7.958;2023-07-20T13:26:11;96869.50;;;27.43;36.25
9281;BME280;4679;47.966;7.958;2023-07-20T13:28:13;96859.41;;;27.43;36.45
9281;BME280;4679;47.966;7.958;2023-07-20T13:30:15;96859.03;;;27.45;35.98
9281;BME280;4679;47.966;7.958;2023-07-20T13:32:19;96866.63;;;27.55;36.19
9281;BME280;4679;47.966;7.958;2023-07-20T13:34:21;96862.91;;;27.44;36.21
9281;BME280;4679;47.966;7.958;2023-07-20T13:36:23;96856.44;;;27.52;35.87
9281;BME280;4679;47.966;7.958;2023-07-20T13:38:24;96863.38;;;27.65;35.59
9281;BME280;4679;47.966;7.958;2023-07-20T13:40:26;96863.84;;;27.71;35.81
9281;BME280;4679;47.966;7.958;2023-07-20T13:42:28;96863.03;;;27.89;35.23
9281;BME280;4679;47.966;7.958;2023-07-20T13:44:29;96859.59;;;27.73;35.71
9281;BME280;4679;47.966;7.958;2023-07-20T13:46:30;96853.59;;;27.45;35.96
9281;BME280;4679;47.966;7.958;2023-07-20T13:48:33;96854.28;;;27.42;35.99
9281;BME280;4679;47.966;7.958;2023-07-20T13:50:35;96857.72;;;27.39;35.58
9281;BME280;4679;47.966;7.958;2023-07-20T13:52:36;96848.78;;;27.38;36.05
9281;BME280;4679;47.966;7.958;2023-07-20T13:54:38;96850.72;;;27.18;36.14
9281;BME280;4679;47.966;7.958;2023-07-20T13:56:40;96846.34;;;27.33;36.00
9281;BME280;4679;47.966;7.958;2023-07-20T13:58:41;96845.63;;;27.75;35.37
9281;BME280;4679;47.966;7.958;2023-07-20T14:00:43;96839.75;;;27.95;35.41
9281;BME280;4679;47.966;7.958;2023-07-20T14:02:45;96837.78;;;27.73;35.66
9281;BME280;4679;47.966;7.958;2023-07-20T14:04:47;96839.97;;;27.64;35.73
9281;BME280;4679;47.966;7.958;2023-07-20T14:06:49;96837.97;;;27.61;35.65
9281;BME280;4679;47.966;7.958;2023-07-20T14:08:51;96839.88;;;27.41;35.50
9281;BME280;4679;47.966;7.958;2023-07-20T14:10:53;96837.63;;;27.85;35.71
9281;BME280;4679;47.966;7.958;2023-07-20T14:12:55;96831.69;;;28.02;34.97
9281;BME280;4679;47.966;7.958;2023-07-20T14:14:56;96836.09;;;27.88;35.57
9281;BME280;4679;47.966;7.958;2023-07-20T14:16:58;96840.34;;;27.85;35.00
9281;BME280;4679;47.966;7.958;2023-07-20T14:19:00;96838.22;;;27.75;35.55
9281;BME280;4679;47.966;7.958;2023-07-20T14:21:03;96830.97;;;28.06;34.94
9281;BME280;4679;47.966;7.958;2023-07-20T14:23:05;96833.25;;;28.04;35.25
9281;BME280;4679;47.966;7.958;2023-07-20T14:25:07;96838.53;;;28.16;35.07
9281;BME280;4679;47.966;7.958;2023-07-20T14:27:08;96831.97;;;28.43;34.57
9281;BME280;4679;47.966;7.958;2023-07-20T14:29:11;96824.78;;;28.58;34.76
9281;BME280;4679;47.966;7.958;2023-07-20T14:31:13;96818.44;;;28.24;35.10
9281;BME280;4679;47.966;7.958;2023-07-20T14:33:14;96816.88;;;28.23;34.83
9281;BME280;4679;47.966;7.958;2023-07-20T14:35:16;96821.56;;;27.80;35.35
9281;BME280;4679;47.966;7.958;2023-07-20T14:37:19;96809.97;;;27.64;35.91
9281;BME280;4679;47.966;7.958;2023-07-20T14:39:21;96810.03;;;27.48;35.82
9281;BME280;4679;47.966;7.958;2023-07-20T14:41:23;96808.50;;;27.70;35.31
9281;BME280;4679;47.966;7.958;2023-07-20T14:43:24;96808.81;;;27.46;35.86
9281;BME280;4679;47.966;7.958;2023-07-20T14:45:26;96803.84;;;27.51;35.57
9281;BME280;4679;47.966;7.958;2023-07-20T14:47:28;96811.97;;;27.48;35.56
9281;BME280;4679;47.966;7.958;2023-07-20T14:49:32;96797.78;;;27.58;35.60
9281;BME280;4679;47.966;7.958;2023-07-20T14:51:34;96804.38;;;27.57;35.67
9281;BME280;4679;47.966;7.958;2023-07-20T14:53:37;96798.41;;;27.93;34.93
9281;BME280;4679;47.966;7.958;2023-07-20T14:55:39;96795.03;;;28.23;35.20
9281;BME280;4679;47.966;7.958;2023-07-20T14:57:41;96805.13;;;27.99;35.34
9281;BME280;4679;47.966;7.958;2023-07-20T14:59:42;96805.13;;;27.77;35.23
9281;BME280;4679;47.966;7.958;2023-07-20T15:01:44;96797.69;;;27.74;35.94
9281;BME280;4679;47.966;7.958;2023-07-20T15:03:46;96799.38;;;28.05;35.20
9281;BME280;4679;47.966;7.958;2023-07-20T15:05:50;96793.09;;;28.23;35.34
9281;BME280;4679;47.966;7.958;2023-07-20T15:07:52;96796.41;;;28.36;34.91
9281;BME280;4679;47.966;7.958;2023-07-20T15:09:55;96805.59;;;28.51;34.65
9281;BME280;4679;47.966;7.958;2023-07-20T15:11:57;96793.38;;;28.41;34.73
9281;BME280;4679;47.966;7.958;2023-07-20T15:13:59;96787.09;;;28.18;35.33
9281;BME280;4679;47.966;7.958;2023-07-20T15:16:01;96784.91;;;28.23;35.02
9281;BME280;4679;47.966;7.958;2023-07-20T15:18:02;96779.53;;;28.30;35.16
9281;BME280;4679;47.966;7.958;2023-07-20T15:20:06;96783.06;;;28.31;35.07
9281;BME280;4679;47.966;7.958;2023-07-20T15:22:08;96790.50;;;28.34;35.32
9281;BME280;4679;47.966;7.958;2023-07-20T15:24:09;96781.22;;;28.16;35.33
9281;BME280;4679;47.966;7.958;2023-07-20T15:26:12;96775.25;;;28.07;35.39
9281;BME280;4679;47.966;7.958;2023-07-20T15:28:15;96765.41;;;28.02;35.93
9281;BME280;4679;47.966;7.958;2023-07-20T15:30:17;96764.34;;;28.07;35.41
9281;BME280;4679;47.966;7.958;2023-07-20T15:32:19;96767.78;;;27.58;36.18
9281;BME280;4679;47.966;7.958;2023-07-20T15:34:20;96766.28;;;27.60;36.14
9281;BME280;4679;47.966;7.958;2023-07-20T15:36:22;96759.41;;;27.47;36.24
9281;BME280;4679;47.966;7.958;2023-07-20T15:38:24;96763.06;;;27.36;36.38
9281;BME280;4679;47.966;7.958;2023-07-20T15:40:26;96757.59;;;27.36;36.31
9281;BME280;4679;47.966;7.958;2023-07-20T15:42:29;96755.31;;;27.38;35.82
9281;BME280;4679;47.966;7.958;2023-07-20T15:44:31;96752.84;;;27.52;36.13
9281;BME280;4679;47.966;7.958;2023-07-20T15:46:46;96759.41;;;27.47;36.04
9281;BME280;4679;47.966;7.958;2023-07-20T15:48:48;96756.63;;;27.24;35.91
9281;BME280;4679;47.966;7.958;2023-07-20T15:50:50;96754.63;;;27.21;36.38
9281;BME280;4679;47.966;7.958;2023-07-20T15:52:52;96755.63;;;27.33;36.02
9281;BME280;4679;47.966;7.958;2023-07-20T15:54:54;96748.47;;;27.05;36.12
9281;BME280;4679;47.966;7.958;2023-07-20T15:56:56;96742.03;;;26.94;36.16
9281;BME280;4679;47.966;7.958;2023-07-20T15:58:59;96740.28;;;26.86;36.12
9281;BME280;4679;47.966;7.958;2023-07-20T16:01:01;96749.59;;;26.66;36.82
9281;BME280;4679;47.966;7.958;2023-07-20T16:03:02;96743.06;;;26.70;36.87
9281;BME280;4679;47.966;7.958;2023-07-20T16:05:06;96740.59;;;27.00;35.81
9281;BME280;4679;47.966;7.958;2023-07-20T16:07:07;96736.47;;;26.90;36.07
9281;BME280;4679;47.966;7.958;2023-07-20T16:09:09;96737.91;;;26.84;36.42
9281;BME280;4679;47.966;7.958;2023-07-20T16:11:10;96731.34;;;26.85;36.58
9281;BME280;4679;47.966;7.958;2023-07-20T16:13:11;96724.19;;;26.96;36.03
9281;BME280;4679;47.966;7.958;2023-07-20T16:15:14;96737.84;;;27.19;36.22
9281;BME280;4679;47.966;7.958;2023-07-20T16:17:16;96729.53;;;27.31;35.66
9281;BME280;4679;47.966;7.958;2023-07-20T16:19:18;96730.00;;;27.37;36.00
9281;BME280;4679;47.966;7.958;2023-07-20T16:21:20;96732.78;;;27.41;35.70
9281;BME280;4679;47.966;7.958;2023-07-20T16:23:21;96720.56;;;27.31;36.25
9281;BME280;4679;47.966;7.958;2023-07-20T16:25:23;96724.78;;;27.28;36.06
9281;BME280;4679;47.966;7.958;2023-07-20T16:27:25;96725.97;;;27.08;36.09
9281;BME280;4679;47.966;7.958;2023-07-20T16:29:26;96729.75;;;26.84;36.40
9281;BME280;4679;47.966;7.958;2023-07-20T16:31:29;96736.59;;;26.59;36.96
9281;BME280;4679;47.966;7.958;2023-07-20T16:33:31;96725.34;;;26.41;37.06
9281;BME280;4679;47.966;7.958;2023-07-20T16:35:36;96726.75;;;26.35;36.63
9281;BME280;4679;47.966;7.958;2023-07-20T16:37:38;96723.25;;;26.35;37.29
9281;BME280;4679;47.966;7.958;2023-07-20T16:39:39;96727.72;;;26.27;36.85
9281;BME280;4679;47.966;7.958;2023-07-20T16:41:41;96729.22;;;26.24;36.92
9281;BME280;4679;47.966;7.958;2023-07-20T16:43:43;96722.13;;;26.20;36.98
9281;BME280;4679;47.966;7.958;2023-07-20T16:45:45;96722.59;;;26.06;37.39
9281;BME280;4679;47.966;7.958;2023-07-20T16:47:48;96719.78;;;26.03;37.39
9281;BME280;4679;47.966;7.958;2023-07-20T16:49:49;96721.59;;;26.14;37.06
9281;BME280;4679;47.966;7.958;2023-07-20T16:51:51;96723.00;;;26.24;37.02
9281;BME280;4679;47.966;7.958;2023-07-20T16:53:53;96717.28;;;26.29;36.98
9281;BME280;4679;47.966;7.958;2023-07-20T16:55:55;96715.69;;;26.28;37.41
9281;BME280;4679;47.966;7.958;2023-07-20T16:57:56;96715.97;;;26.23;37.09
9281;BME280;4679;47.966;7.958;2023-07-20T16:59:58;96712.50;;;26.07;37.11
9281;BME280;4679;47.966;7.958;2023-07-20T17:02:00;96714.25;;;25.99;37.43
9281;BME280;4679;47.966;7.958;2023-07-20T17:04:03;96705.75;;;26.01;37.14
9281;BME280;4679;47.966;7.958;2023-07-20T17:06:05;96715.13;;;26.03;37.31
9281;BME280;4679;47.966;7.958;2023-07-20T17:08:07;96708.09;;;26.02;37.72
9281;BME280;4679;47.966;7.958;2023-07-20T17:10:09;96714.34;;;26.03;37.45
9281;BME280;4679;47.966;7.958;2023-07-20T17:12:11;96709.06;;;26.10;37.76
9281;BME280;4679;47.966;7.958;2023-07-20T17:14:13;96718.84;;;25.95;37.63
9281;BME280;4679;47.966;7.958;2023-07-20T17:16:14;96709.25;;;25.85;37.43
9281;BME280;4679;47.966;7.958;2023-07-20T17:18:16;96716.97;;;25.83;37.68